Time;durP1;ratioP1;P1;durP2;ratioP2;P2;SDS_P1;SDS_P2;PMS_P1;PMS_P2;Temp;Humidity;BMP_temperature;BMP_pressure;BME280_temperature;BME280_humidity;BME280_pressure;Samples;Min_cycle;Max_cycle;Signal;HPM_P1;HPM_P2
2023/12/23 00:01:50;;;;;;;3.90;0.60;;;;;;;0.20;100.00;97760.30;108806;1256;60528;-51
2023/12/23 00:04:17;;;;;;;2.10;0.60;;;;;;;0.24;100.00;97760.70;108792;1256;72446;-53
2023/12/23 00:06:44;;;;;;;6.80;0.90;;;;;;;0.28;100.00;97761.59;108860;1257;65691;-53
2023/12/23 00:09:15;;;;;;;2.70;0.50;;;;;;;0.31;100.00;97759.54;108692;1260;73128;-53
2023/12/23 00:11:42;;;;;;;3.00;0.50;;;;;;;0.33;100.00;97768.83;108733;1256;58265;-53
2023/12/23 00:14:10;;;;;;;4.00;0.70;;;;;;;0.34;100.00;97771.39;108796;1257;59164;-52
2023/12/23 00:16:37;;;;;;;5.40;1.50;;;;;;;0.35;100.00;97769.59;108912;1255;72614;-52
2023/12/23 00:19:05;;;;;;;3.90;0.50;;;;;;;0.36;100.00;97767.60;105820;1257;65743;-55
2023/12/23 00:21:33;;;;;;;2.00;0.50;;;;;;;0.38;100.00;97765.25;104721;1260;72757;-56
2023/12/23 00:24:01;;;;;;;3.80;0.80;;;;;;;0.41;100.00;97761.80;105740;1255;60444;-55
2023/12/23 00:26:28;;;;;;;4.20;0.50;;;;;;;0.45;100.00;97765.31;104800;1261;60501;-54
2023/12/23 00:28:55;;;;;;;3.60;0.50;;;;;;;0.48;100.00;97765.05;104820;1258;73925;-55
2023/12/23 00:31:23;;;;;;;4.00;0.60;;;;;;;0.51;100.00;97765.45;104688;1263;67902;-54
2023/12/23 00:33:52;;;;;;;3.20;0.60;;;;;;;0.54;100.00;97768.86;107617;1259;71772;-54
2023/12/23 00:36:19;;;;;;;3.20;0.50;;;;;;;0.55;100.00;97771.98;105896;1262;60432;-56
2023/12/23 00:38:47;;;;;;;7.90;0.50;;;;;;;0.55;100.00;97771.10;104460;1263;60615;-52
2023/12/23 00:41:15;;;;;;;3.50;0.60;;;;;;;0.54;100.00;97774.14;104953;1262;72593;-54
2023/12/23 00:43:42;;;;;;;2.60;0.50;;;;;;;0.52;100.00;97776.50;104552;1263;66196;-54
2023/12/23 00:46:10;;;;;;;1.10;0.60;;;;;;;0.50;100.00;97776.79;104687;1261;72747;-53
2023/12/23 00:48:37;;;;;;;2.70;0.60;;;;;;;0.48;100.00;97776.52;104424;1259;60954;-52
2023/12/23 00:53:59;;;;;;;1.90;0.60;;;;;;;0.45;100.00;97841.57;101660;1292;601893;-56
2023/12/23 00:56:26;;;;;;;1.00;0.40;;;;;;;0.47;100.00;97877.48;103767;1271;59255;-55
2023/12/23 00:58:53;;;;;;;3.70;0.40;;;;;;;0.51;100.00;97863.74;104423;1265;59967;-55
2023/12/23 01:01:21;;;;;;;1.60;0.50;;;;;;;0.55;100.00;97851.77;104227;1261;72305;-54
2023/12/23 01:03:48;;;;;;;2.10;0.50;;;;;;;0.59;100.00;97843.34;104361;1265;67643;-55
2023/12/23 01:06:16;;;;;;;2.40;0.50;;;;;;;0.62;100.00;97844.25;104807;1265;73633;-54
2023/12/23 01:08:43;;;;;;;1.70;0.50;;;;;;;0.64;100.00;97841.00;104053;1267;256613;-55
2023/12/23 01:11:11;;;;;;;1.00;0.50;;;;;;;0.67;100.00;97838.05;104359;1265;59345;-54
2023/12/23 01:13:38;;;;;;;2.60;0.50;;;;;;;0.70;100.00;97835.45;104440;1262;72302;-55
2023/12/23 01:16:05;;;;;;;1.50;0.50;;;;;;;0.73;100.00;97834.61;104465;1260;65795;-54
2023/12/23 01:18:33;;;;;;;2.30;0.50;;;;;;;0.77;100.00;97828.48;104407;1264;71482;-54
2023/12/23 01:21:00;;;;;;;4.20;0.70;;;;;;;0.81;100.00;97828.32;104415;1263;59595;-53
2023/12/23 01:23:27;;;;;;;2.10;0.60;;;;;;;0.84;100.00;97828.05;104583;1258;59575;-54
2023/12/23 01:25:55;;;;;;;2.40;0.60;;;;;;;0.86;100.00;97827.09;104420;1262;73316;-53
2023/12/23 01:28:22;;;;;;;2.30;0.60;;;;;;;0.87;100.00;97826.67;104299;1261;68025;-49
2023/12/23 01:30:49;;;;;;;1.60;0.50;;;;;;;0.87;100.00;97826.64;104384;1262;73127;-53
2023/12/23 01:33:16;;;;;;;2.00;0.60;;;;;;;0.89;100.00;97827.13;104335;1257;61543;-54
2023/12/23 01:35:44;;;;;;;2.20;0.50;;;;;;;0.90;100.00;97829.18;104669;1258;59809;-52
2023/12/23 01:38:11;;;;;;;2.30;0.60;;;;;;;0.92;100.00;97831.23;104497;1261;73540;-50
2023/12/23 01:40:40;;;;;;;1.80;0.50;;;;;;;0.94;100.00;97834.52;104416;1258;65497;-54
2023/12/23 01:43:07;;;;;;;3.10;0.70;;;;;;;0.96;100.00;97840.78;104265;1262;72724;-54
2023/12/23 01:45:34;;;;;;;3.20;0.50;;;;;;;0.97;100.00;97833.85;104421;1261;59754;-54
2023/12/23 01:48:03;;;;;;;1.40;0.50;;;;;;;0.99;100.00;97831.84;104325;1259;59946;-54
2023/12/23 01:50:30;;;;;;;1.60;0.50;;;;;;;1.00;100.00;97826.51;104454;1261;73210;-55
2023/12/23 01:52:57;;;;;;;1.90;0.60;;;;;;;1.01;100.00;97827.87;105349;1261;65827;-55
2023/12/23 01:55:28;;;;;;;3.10;0.50;;;;;;;1.03;100.00;97818.41;105624;1260;73197;-54
2023/12/23 01:57:56;;;;;;;2.20;0.50;;;;;;;1.04;100.00;97816.43;104511;1258;59699;-53
2023/12/23 02:00:23;;;;;;;1.10;0.50;;;;;;;1.05;100.00;97819.40;104197;1261;59767;-54
2023/12/23 02:02:50;;;;;;;3.50;0.60;;;;;;;1.07;100.00;97824.11;104501;1257;73896;-54
2023/12/23 02:05:19;;;;;;;2.10;0.40;;;;;;;1.08;100.00;97819.98;104259;1265;65688;-54
2023/12/23 02:07:47;;;;;;;2.50;0.40;;;;;;;1.08;100.00;97817.33;104311;1263;72706;-53
2023/12/23 02:10:14;;;;;;;1.90;0.40;;;;;;;1.06;100.00;97811.92;104776;1264;59662;-53
2023/12/23 02:13:00;;;;;;;2.90;0.50;;;;;;;1.06;100.00;97810.52;104484;1257;60477;-53
2023/12/23 02:15:41;;;;;;;2.10;0.30;;;;;;;1.06;100.00;97822.70;105183;1264;73062;-53
2023/12/23 02:18:08;;;;;;;4.20;0.40;;;;;;;1.05;100.00;97812.15;104523;1262;66975;-55
2023/12/23 02:20:36;;;;;;;1.30;0.40;;;;;;;1.06;100.00;97810.88;104212;1270;70433;-53
2023/12/23 02:23:03;;;;;;;1.50;0.50;;;;;;;1.07;100.00;97809.23;105158;1260;59627;-53
2023/12/23 02:25:32;;;;;;;3.00;0.50;;;;;;;1.09;100.00;97809.71;104508;1263;59971;-53
2023/12/23 02:28:03;;;;;;;2.30;0.40;;;;;;;1.10;100.00;97805.92;105724;1263;73622;-54
2023/12/23 02:30:31;;;;;;;1.30;0.40;;;;;;;1.10;100.00;97806.14;104183;1257;66930;-54
2023/12/23 02:32:58;;;;;;;2.80;0.50;;;;;;;1.08;100.00;97797.56;104177;1262;74189;-55
2023/12/23 02:35:26;;;;;;;0.90;0.50;;;;;;;1.05;100.00;97792.54;104445;1261;59571;-55
2023/12/23 02:37:55;;;;;;;2.90;0.30;;;;;;;1.02;100.00;97785.98;108522;1258;59426;-55
2023/12/23 02:40:22;;;;;;;2.40;0.50;;;;;;;0.99;100.00;97786.98;108647;1257;71901;-56
2023/12/23 02:42:49;;;;;;;1.60;0.30;;;;;;;0.98;100.00;97784.55;108119;1261;65645;-55
2023/12/23 02:45:17;;;;;;;2.40;0.50;;;;;;;0.97;100.00;97787.41;108532;1258;71930;-54
2023/12/23 02:47:44;;;;;;;0.80;0.40;;;;;;;0.95;100.00;97784.82;108565;1257;58638;-54
2023/12/23 02:50:12;;;;;;;1.50;0.40;;;;;;;0.96;100.00;97778.98;105318;1261;59682;-55
2023/12/23 02:52:40;;;;;;;1.10;0.50;;;;;;;0.95;100.00;97779.55;104468;1256;71620;-54
2023/12/23 02:55:07;;;;;;;4.90;0.50;;;;;;;0.93;100.00;97776.27;104438;1262;67825;-54
2023/12/23 02:57:34;;;;;;;1.70;0.80;;;;;;;0.92;100.00;97775.45;104508;1262;72776;-54
2023/12/23 03:00:03;;;;;;;4.50;0.50;;;;;;;0.88;100.00;97771.02;104342;1263;59875;-53
2023/12/23 03:02:30;;;;;;;1.20;0.40;;;;;;;0.86;100.00;97769.69;104462;1260;59860;-54
2023/12/23 03:04:58;;;;;;;1.60;0.40;;;;;;;0.85;100.00;97771.85;104341;1257;73582;-54
2023/12/23 03:07:25;;;;;;;1.70;0.50;;;;;;;0.86;100.00;97771.10;108652;1258;66968;-54
2023/12/23 03:09:52;;;;;;;2.20;0.40;;;;;;;0.87;100.00;97774.04;108564;1260;72746;-55
2023/12/23 03:12:20;;;;;;;1.30;0.60;;;;;;;0.90;100.00;97775.17;108553;1257;58071;-55
2023/12/23 03:14:47;;;;;;;1.80;0.60;;;;;;;0.92;100.00;97777.03;106943;1260;59762;-54
2023/12/23 03:17:15;;;;;;;2.80;1.60;;;;;;;0.93;100.00;97783.52;104273;1257;71415;-54
2023/12/23 03:19:42;;;;;;;3.60;0.60;;;;;;;0.93;100.00;97782.65;105068;1261;66711;-54
2023/12/23 03:22:10;;;;;;;2.60;0.50;;;;;;;0.93;100.00;97788.13;104499;1263;73281;-55
2023/12/23 03:24:37;;;;;;;1.50;0.60;;;;;;;0.92;100.00;97783.92;104600;1265;59743;-54
2023/12/23 03:27:05;;;;;;;2.40;0.40;;;;;;;0.90;100.00;97780.45;104832;1261;59666;-54
2023/12/23 03:29:32;;;;;;;1.10;0.50;;;;;;;0.90;100.00;97782.59;104664;1257;72028;-54
2023/12/23 03:31:59;;;;;;;3.00;0.90;;;;;;;0.91;100.00;97784.31;104385;1261;67053;-55
2023/12/23 03:34:27;;;;;;;1.70;0.40;;;;;;;0.92;100.00;97783.20;104470;1263;71407;-53
2023/12/23 03:36:54;;;;;;;1.00;0.40;;;;;;;0.94;100.00;97779.04;104623;1260;59715;-53
2023/12/23 03:39:21;;;;;;;1.10;0.50;;;;;;;0.98;100.00;97779.60;104467;1263;59911;-53
2023/12/23 03:41:48;;;;;;;2.00;0.40;;;;;;;1.01;100.00;97785.13;104434;1258;73051;-53
2023/12/23 03:44:16;;;;;;;1.10;0.60;;;;;;;1.03;100.00;97784.48;104448;1257;66202;-54
2023/12/23 03:46:43;;;;;;;1.80;0.50;;;;;;;1.05;100.00;97783.53;104600;1257;73168;-54
2023/12/23 03:49:11;;;;;;;3.40;0.60;;;;;;;1.05;100.00;97783.69;104277;1258;61638;-53
2023/12/23 03:51:38;;;;;;;1.40;0.50;;;;;;;1.04;100.00;97780.40;104426;1257;59838;-54
2023/12/23 03:54:05;;;;;;;4.00;0.90;;;;;;;1.02;100.00;97779.61;104454;1258;74560;-54
2023/12/23 03:56:33;;;;;;;1.10;0.40;;;;;;;1.01;100.00;97777.55;104405;1263;65564;-54
2023/12/23 03:59:00;;;;;;;1.60;0.40;;;;;;;0.99;100.00;97780.42;104409;1260;73974;-54
2023/12/23 04:01:27;;;;;;;2.40;0.40;;;;;;;0.98;100.00;97786.64;104343;1262;60867;-54
2023/12/23 04:03:55;;;;;;;0.90;0.40;;;;;;;0.99;100.00;97783.60;104361;1257;59665;-54
2023/12/23 04:06:22;;;;;;;1.00;0.40;;;;;;;1.01;100.00;97786.20;104903;1257;72208;-54
2023/12/23 04:08:49;;;;;;;2.20;0.50;;;;;;;1.02;100.00;97790.38;105539;1257;65872;-53
2023/12/23 04:11:17;;;;;;;3.50;0.40;;;;;;;1.02;100.00;97793.36;104463;1264;71478;-54
2023/12/23 04:13:45;;;;;;;1.20;0.40;;;;;;;1.00;100.00;97798.21;107078;1257;59680;-54
2023/12/23 04:16:12;;;;;;;3.90;0.80;;;;;;;1.00;100.00;97803.55;104415;1264;60199;-54
2023/12/23 04:18:41;;;;;;;1.10;0.40;;;;;;;0.98;100.00;97804.34;104863;1260;71846;-54
2023/12/23 04:21:10;;;;;;;1.90;0.50;;;;;;;0.94;100.00;97803.59;105013;1255;67523;-54
2023/12/23 04:23:38;;;;;;;2.20;0.50;;;;;;;0.91;100.00;97807.42;104625;1256;73163;-54
2023/12/23 04:26:08;;;;;;;3.50;0.60;;;;;;;0.89;100.00;97807.70;104647;1257;60924;-54
2023/12/23 04:28:35;;;;;;;3.70;0.60;;;;;;;0.88;100.00;97809.69;106223;1258;59671;-54
2023/12/23 04:31:03;;;;;;;2.80;0.50;;;;;;;0.87;100.00;97809.35;104527;1257;73517;-54
2023/12/23 04:33:31;;;;;;;1.60;0.40;;;;;;;0.88;100.00;97811.42;104834;1257;65374;-55
2023/12/23 04:35:59;;;;;;;3.10;0.40;;;;;;;0.90;100.00;97811.70;105280;1257;73669;-54
2023/12/23 04:38:26;;;;;;;2.90;0.40;;;;;;;0.93;100.00;97816.90;104336;1254;59736;-55
2023/12/23 04:40:54;;;;;;;2.00;0.60;;;;;;;0.95;100.00;97821.40;104574;1258;59560;-55
2023/12/23 04:43:21;;;;;;;1.00;0.40;;;;;;;0.95;100.00;97822.95;104780;1257;72383;-54
2023/12/23 04:45:48;;;;;;;1.80;0.50;;;;;;;0.96;100.00;97822.23;104881;1257;66944;-54
2023/12/23 04:48:16;;;;;;;1.50;0.50;;;;;;;0.95;100.00;97818.02;104479;1260;71399;-55
2023/12/23 04:50:43;;;;;;;3.70;0.50;;;;;;;0.94;100.00;97818.77;104587;1261;59729;-53
2023/12/23 04:53:10;;;;;;;1.70;0.70;;;;;;;0.94;100.00;97817.04;104471;1255;60210;-55
2023/12/23 04:55:38;;;;;;;2.60;0.70;;;;;;;0.93;100.00;97818.48;105134;1257;71918;-55
2023/12/23 04:58:05;;;;;;;3.80;0.80;;;;;;;0.93;100.00;97822.74;104724;1257;66919;-54
2023/12/23 05:00:33;;;;;;;2.40;0.50;;;;;;;0.93;100.00;97829.05;104631;1260;73366;-54
2023/12/23 05:03:00;;;;;;;4.90;0.70;;;;;;;0.95;100.00;97828.09;104438;1256;60458;-54
2023/12/23 05:05:27;;;;;;;4.30;0.80;;;;;;;0.97;100.00;97831.36;104442;1264;60459;-54
2023/12/23 05:07:55;;;;;;;1.60;0.50;;;;;;;1.00;100.00;97842.38;104620;1254;72055;-54
2023/12/23 05:10:22;;;;;;;2.00;0.60;;;;;;;1.03;100.00;97845.95;104468;1262;65595;-53
2023/12/23 05:12:49;;;;;;;2.00;0.60;;;;;;;1.05;100.00;97851.52;104586;1257;71454;-54
2023/12/23 05:15:17;;;;;;;1.40;0.50;;;;;;;1.07;100.00;97853.21;104371;1258;60440;-54
2023/12/23 05:17:45;;;;;;;3.80;0.90;;;;;;;1.08;100.00;97855.15;105201;1257;60595;-54
2023/12/23 05:20:13;;;;;;;4.50;1.00;;;;;;;1.08;100.00;97855.14;104607;1256;74233;-52
2023/12/23 05:22:40;;;;;;;6.00;1.60;;;;;;;1.07;100.00;97859.04;108683;1256;66577;-54
2023/12/23 05:25:08;;;;;;;2.70;1.20;;;;;;;1.07;100.00;97864.90;105142;1256;72753;-54
2023/12/23 05:27:35;;;;;;;4.30;1.20;;;;;;;1.07;100.00;97861.54;104432;1257;61500;-53
2023/12/23 05:30:04;;;;;;;3.50;0.70;;;;;;;1.07;100.00;97867.00;104374;1260;61508;-54
2023/12/23 05:32:31;;;;;;;2.90;0.70;;;;;;;1.09;100.00;97876.83;104520;1260;72284;-54
2023/12/23 05:34:59;;;;;;;2.30;0.50;;;;;;;1.11;100.00;97877.45;108781;1256;65994;-54
2023/12/23 05:37:26;;;;;;;2.80;0.60;;;;;;;1.13;100.00;97879.13;104772;1256;74093;-54
2023/12/23 05:39:54;;;;;;;5.80;1.00;;;;;;;1.16;100.00;97884.31;104612;1258;60963;-53
2023/12/23 05:42:23;;;;;;;2.00;0.70;;;;;;;1.18;100.00;97885.13;104711;1256;60892;-53
2023/12/23 05:44:51;;;;;;;2.40;0.60;;;;;;;1.18;100.00;97890.09;104744;1256;74324;-53
2023/12/23 05:47:18;;;;;;;3.10;0.50;;;;;;;1.18;100.00;97894.13;104672;1256;67047;-53
2023/12/23 05:49:46;;;;;;;1.90;0.60;;;;;;;1.17;100.00;97891.71;104770;1257;71478;-53
2023/12/23 05:52:13;;;;;;;7.00;0.80;;;;;;;1.16;100.00;97900.76;104243;1258;60457;-53
2023/12/23 05:54:41;;;;;;;2.80;0.60;;;;;;;1.15;100.00;97901.85;104340;1258;60443;-53
2023/12/23 05:57:08;;;;;;;3.10;0.60;;;;;;;1.14;100.00;97904.69;104471;1258;72564;-52
2023/12/23 05:59:36;;;;;;;2.90;0.50;;;;;;;1.16;100.00;97915.41;104657;1255;67368;-52
2023/12/23 06:02:03;;;;;;;3.30;0.60;;;;;;;1.17;100.00;97920.84;104417;1256;71484;-53
2023/12/23 06:04:30;;;;;;;5.00;0.50;;;;;;;1.19;100.00;97925.70;104656;1256;60514;-53
2023/12/23 06:06:59;;;;;;;4.00;0.50;;;;;;;1.20;100.00;97924.94;104789;1260;60561;-52
2023/12/23 06:09:26;;;;;;;6.00;0.60;;;;;;;1.23;100.00;97929.62;105656;1256;74367;-53
2023/12/23 06:11:54;;;;;;;3.10;0.70;;;;;;;1.23;100.00;97929.26;104601;1256;66150;-54
2023/12/23 06:14:21;;;;;;;1.60;0.50;;;;;;;1.23;100.00;97933.31;104548;1257;70481;-53
2023/12/23 06:16:48;;;;;;;1.70;0.50;;;;;;;1.23;100.00;97940.41;106525;1257;60424;-53
2023/12/23 06:19:16;;;;;;;2.40;0.60;;;;;;;1.21;100.00;97943.83;106060;1256;60536;-54
2023/12/23 06:21:46;;;;;;;3.50;0.40;;;;;;;1.21;100.00;97944.89;105306;1256;72976;-53
2023/12/23 06:24:13;;;;;;;1.90;0.40;;;;;;;1.22;100.00;97946.63;104614;1255;66006;-54
2023/12/23 06:26:41;;;;;;;4.40;0.40;;;;;;;1.23;100.00;97950.30;104670;1257;71500;-53
2023/12/23 06:29:12;;;;;;;1.80;0.50;;;;;;;1.23;100.00;97951.87;106284;1256;60555;-53
2023/12/23 06:31:39;;;;;;;3.60;0.50;;;;;;;1.25;100.00;97951.64;104493;1258;60473;-53
2023/12/23 06:34:07;;;;;;;1.50;0.50;;;;;;;1.27;100.00;97954.90;104667;1255;71939;-54
2023/12/23 06:36:34;;;;;;;4.20;0.50;;;;;;;1.29;100.00;97961.49;104569;1259;67615;-54
2023/12/23 06:39:03;;;;;;;3.70;0.50;;;;;;;1.31;100.00;97961.83;104495;1260;72637;-54
2023/12/23 06:41:30;;;;;;;5.20;0.60;;;;;;;1.30;100.00;97967.13;105034;1256;60442;-52
2023/12/23 06:43:57;;;;;;;3.90;0.60;;;;;;;1.29;100.00;97968.09;104593;1260;60458;-54
2023/12/23 06:46:25;;;;;;;3.10;0.60;;;;;;;1.26;100.00;97968.02;104546;1259;73989;-54
2023/12/23 06:48:52;;;;;;;3.00;0.60;;;;;;;1.24;100.00;97976.39;104735;1258;68178;-53
2023/12/23 06:51:20;;;;;;;6.10;1.40;;;;;;;1.24;100.00;97978.17;104472;1260;72659;-54
2023/12/23 06:53:47;;;;;;;2.20;0.50;;;;;;;1.25;100.00;97979.91;104479;1256;60955;-54
2023/12/23 06:56:15;;;;;;;3.70;0.60;;;;;;;1.27;100.00;97981.42;105351;1260;60340;-54
2023/12/23 06:58:42;;;;;;;2.60;0.50;;;;;;;1.29;100.00;97982.88;104705;1256;71883;-54
2023/12/23 07:01:10;;;;;;;4.00;0.60;;;;;;;1.32;100.00;97991.10;104489;1257;66905;-53
2023/12/23 07:03:37;;;;;;;2.70;0.70;;;;;;;1.34;100.00;97991.05;104746;1260;70521;-51
2023/12/23 07:06:05;;;;;;;2.70;0.60;;;;;;;1.35;100.00;97997.15;105300;1256;60503;-52
2023/12/23 07:08:33;;;;;;;1.70;0.60;;;;;;;1.35;100.00;98000.52;105272;1258;60553;-54
2023/12/23 07:11:02;;;;;;;6.50;0.50;;;;;;;1.34;100.00;98005.69;105055;1258;73945;-54
2023/12/23 07:13:29;;;;;;;4.00;0.60;;;;;;;1.32;100.00;98002.77;104890;1256;65654;-54
2023/12/23 07:15:56;;;;;;;1.10;0.60;;;;;;;1.29;100.00;97997.91;104713;1257;70821;-49
2023/12/23 07:18:24;;;;;;;2.40;0.50;;;;;;;1.29;100.00;98001.27;104549;1256;61319;-53
2023/12/23 07:20:51;;;;;;;2.20;0.50;;;;;;;1.30;100.00;98005.14;104656;1257;60682;-52
2023/12/23 07:23:18;;;;;;;2.30;0.50;;;;;;;1.31;100.00;98005.43;104643;1258;74287;-52
2023/12/23 07:25:46;;;;;;;3.30;0.60;;;;;;;1.35;100.00;98005.46;104657;1258;66731;-51
2023/12/23 07:28:13;;;;;;;2.60;0.70;;;;;;;1.39;100.00;98004.96;104523;1256;73176;-53
2023/12/23 07:30:44;;;;;;;2.40;0.50;;;;;;;1.42;100.00;98009.98;104558;1256;60497;-53
2023/12/23 07:33:13;;;;;;;4.80;0.70;;;;;;;1.43;100.00;98011.85;104610;1258;61107;-52
2023/12/23 07:35:40;;;;;;;1.70;0.50;;;;;;;1.45;100.00;98018.16;105296;1255;72618;-53
2023/12/23 07:38:07;;;;;;;2.60;0.60;;;;;;;1.44;100.00;98015.70;104426;1256;66033;-52
2023/12/23 07:40:35;;;;;;;3.60;0.60;;;;;;;1.43;100.00;98017.36;104570;1261;71492;-53
2023/12/23 07:43:03;;;;;;;5.20;0.80;;;;;;;1.41;100.00;98020.08;104754;1256;60506;-52
2023/12/23 07:45:31;;;;;;;3.30;0.70;;;;;;;1.41;100.00;98016.90;104846;1260;60635;-53
2023/12/23 07:47:58;;;;;;;3.70;0.60;;;;;;;1.42;100.00;98018.81;104714;1254;72596;-53
2023/12/23 07:50:26;;;;;;;3.80;0.70;;;;;;;1.43;100.00;98019.11;104707;1255;67584;-53
2023/12/23 07:52:54;;;;;;;3.30;0.60;;;;;;;1.46;100.00;98018.11;104567;1256;73553;-53
2023/12/23 07:55:21;;;;;;;3.10;0.50;;;;;;;1.48;100.00;98022.77;104392;1256;60490;-54
2023/12/23 07:57:48;;;;;;;1.30;0.50;;;;;;;1.53;100.00;98019.59;104468;1256;60711;-54
2023/12/23 08:00:16;;;;;;;5.50;0.70;;;;;;;1.60;100.00;98026.77;104543;1256;72797;-53
2023/12/23 08:02:44;;;;;;;4.20;0.60;;;;;;;1.64;100.00;98033.14;108882;1256;65675;-54
2023/12/23 08:05:11;;;;;;;7.80;0.80;;;;;;;1.67;100.00;98040.61;108649;1257;73643;-55
2023/12/23 08:07:43;;;;;;;2.00;0.60;;;;;;;1.70;100.00;98042.43;105943;1258;61099;-53
2023/12/23 08:10:10;;;;;;;1.90;0.60;;;;;;;1.73;100.00;98048.50;105833;1258;60506;-53
2023/12/23 08:12:38;;;;;;;1.40;0.60;;;;;;;1.76;100.00;98051.40;104750;1254;73940;-50
2023/12/23 08:15:06;;;;;;;4.50;0.80;;;;;;;1.76;100.00;98060.93;104689;1255;66913;-55
2023/12/23 08:17:34;;;;;;;3.20;0.60;;;;;;;1.78;100.00;98068.48;104780;1258;73193;-53
2023/12/23 08:20:01;;;;;;;2.40;0.50;;;;;;;1.80;100.00;98068.73;108687;1255;60271;-55
2023/12/23 08:22:28;;;;;;;4.20;1.00;;;;;;;1.82;100.00;98070.95;105129;1258;60394;-53
2023/12/23 08:24:56;;;;;;;2.90;0.60;;;;;;;1.85;100.00;98071.20;104625;1256;72592;-52
2023/12/23 08:27:24;;;;;;;5.50;0.60;;;;;;;1.88;100.00;98072.50;104689;1259;67066;-53
2023/12/23 08:29:51;;;;;;;4.90;0.70;;;;;;;1.89;100.00;98074.02;104531;1260;73144;-54
2023/12/23 08:32:19;;;;;;;3.20;0.70;;;;;;;1.92;100.00;98076.92;104560;1254;60432;-53
2023/12/23 08:34:46;;;;;;;2.30;0.70;;;;;;;1.96;100.00;98088.08;104411;1254;60631;-53
2023/12/23 08:37:14;;;;;;;2.80;0.60;;;;;;;1.99;100.00;98091.48;104738;1255;71857;-54
2023/12/23 08:39:41;;;;;;;2.10;0.60;;;;;;;2.00;100.00;98089.34;104638;1256;67136;-54
2023/12/23 08:42:09;;;;;;;2.50;0.60;;;;;;;2.00;100.00;98092.88;104590;1255;72660;-55
2023/12/23 08:44:36;;;;;;;3.90;0.70;;;;;;;2.00;100.00;98091.65;104454;1259;60464;-55
2023/12/23 08:47:04;;;;;;;5.70;0.80;;;;;;;2.00;100.00;98089.52;104767;1255;60563;-55
2023/12/23 08:49:31;;;;;;;5.40;0.80;;;;;;;2.02;100.00;98091.58;104854;1256;73750;-51
2023/12/23 08:51:58;;;;;;;2.10;0.50;;;;;;;2.04;100.00;98093.23;104589;1259;68848;-54
2023/12/23 08:54:25;;;;;;;1.80;0.50;;;;;;;2.05;100.00;98090.17;104702;1256;72728;-55
2023/12/23 08:56:53;;;;;;;2.90;0.70;;;;;;;2.07;100.00;98093.29;104615;1257;60554;-55
2023/12/23 08:59:20;;;;;;;4.00;0.60;;;;;;;2.09;100.00;98098.87;104716;1256;60918;-56
2023/12/23 09:01:47;;;;;;;2.40;1.10;;;;;;;2.11;100.00;98104.83;104827;1260;74869;-55
2023/12/23 09:04:16;;;;;;;2.50;0.60;;;;;;;2.10;100.00;98109.63;104549;1260;66052;-56
2023/12/23 09:06:44;;;;;;;1.50;0.60;;;;;;;2.08;100.00;98108.28;104457;1257;71178;-55
2023/12/23 09:09:11;;;;;;;4.30;0.70;;;;;;;2.06;100.00;98108.38;108750;1254;59769;-57
2023/12/23 09:11:43;;;;;;;4.90;0.90;;;;;;;2.04;100.00;98104.40;105286;1260;59427;-55
2023/12/23 09:14:10;;;;;;;6.40;0.70;;;;;;;2.03;100.00;98105.14;104733;1257;72631;-56
2023/12/23 09:16:38;;;;;;;4.10;0.70;;;;;;;2.05;100.00;98100.27;104757;1257;65829;-56
2023/12/23 09:19:06;;;;;;;3.90;0.50;;;;;;;2.06;100.00;98106.25;104686;1256;72545;-56
2023/12/23 09:21:34;;;;;;;3.20;0.50;;;;;;;2.08;100.00;98106.02;107084;1255;60419;-55
2023/12/23 09:24:01;;;;;;;5.10;0.90;;;;;;;2.11;100.00;98109.95;104721;1256;60474;-57
2023/12/23 09:26:28;;;;;;;1.60;0.50;;;;;;;2.14;100.00;98114.06;104699;1257;73164;-56
2023/12/23 09:28:56;;;;;;;3.50;0.60;;;;;;;2.17;100.00;98114.48;106513;1258;67259;-57
2023/12/23 09:31:23;;;;;;;2.80;0.70;;;;;;;2.18;100.00;98116.02;104742;1261;73374;-56
2023/12/23 09:33:51;;;;;;;1.90;0.60;;;;;;;2.17;100.00;98114.29;104716;1256;60513;-56
2023/12/23 09:36:18;;;;;;;2.50;0.60;;;;;;;2.18;100.00;98118.49;104845;1256;60557;-55
2023/12/23 09:38:46;;;;;;;3.80;1.10;;;;;;;2.20;100.00;98116.48;104791;1258;72085;-57
2023/12/23 09:41:14;;;;;;;5.00;0.90;;;;;;;2.19;100.00;98117.06;104605;1256;66689;-57
2023/12/23 09:43:42;;;;;;;1.60;0.70;;;;;;;2.16;100.00;98113.61;105106;1261;72723;-57
2023/12/23 09:46:09;;;;;;;2.60;0.80;;;;;;;2.13;100.00;98115.84;105010;1257;60470;-57
2023/12/23 09:48:36;;;;;;;3.70;1.10;;;;;;;2.11;100.00;98113.85;104526;1262;61034;-58
2023/12/23 09:51:04;;;;;;;1.80;0.70;;;;;;;2.11;100.00;98115.95;104922;1258;73745;-58
2023/12/23 09:53:35;;;;;;;2.20;0.40;;;;;;;2.12;100.00;98120.52;104814;1259;66282;-57
2023/12/23 09:56:04;;;;;;;2.40;0.60;;;;;;;2.14;100.00;98118.81;104878;1258;73237;-56
2023/12/23 09:58:31;;;;;;;7.90;1.10;;;;;;;2.17;100.00;98118.89;104531;1254;60542;-56
2023/12/23 10:00:58;;;;;;;6.80;0.90;;;;;;;2.21;100.00;98122.65;104610;1256;60362;-58
2023/12/23 10:03:26;;;;;;;4.30;0.70;;;;;;;2.22;100.00;98125.92;104702;1254;73852;-57
2023/12/23 10:05:54;;;;;;;3.50;0.80;;;;;;;2.24;100.00;98128.34;104749;1258;67574;-56
2023/12/23 10:08:22;;;;;;;4.00;0.70;;;;;;;2.23;100.00;98126.98;104732;1254;74369;-57
2023/12/23 10:10:49;;;;;;;2.20;0.70;;;;;;;2.18;100.00;98124.86;108778;1255;61047;-57
2023/12/23 10:13:16;;;;;;;3.50;1.00;;;;;;;2.16;100.00;98126.73;107095;1256;61170;-55
2023/12/23 10:15:44;;;;;;;5.60;0.70;;;;;;;2.14;100.00;98123.95;105177;1256;74507;-57
2023/12/23 10:18:12;;;;;;;2.00;0.60;;;;;;;2.13;100.00;98119.05;105063;1256;67520;-54
2023/12/23 10:20:41;;;;;;;3.40;0.80;;;;;;;2.10;100.00;98114.42;105333;1255;71930;-58
2023/12/23 10:23:09;;;;;;;3.70;0.90;;;;;;;2.07;100.00;98121.23;104700;1261;60348;-57
2023/12/23 10:25:36;;;;;;;3.80;0.60;;;;;;;2.04;100.00;98126.48;104842;1256;60452;-59
2023/12/23 10:28:05;;;;;;;3.50;0.80;;;;;;;2.04;100.00;98125.10;105004;1260;71971;-57
2023/12/23 10:30:34;;;;;;;3.00;0.50;;;;;;;2.04;100.00;98119.94;104832;1256;66023;-58
2023/12/23 10:33:05;;;;;;;3.20;0.50;;;;;;;2.07;100.00;98122.86;105237;1260;71270;-58
2023/12/23 10:35:53;;;;;;;4.60;0.90;;;;;;;2.10;100.00;98128.55;104918;1259;60539;-58
2023/12/23 10:38:20;;;;;;;3.90;0.70;;;;;;;2.15;100.00;98140.91;104870;1260;60447;-59
2023/12/23 10:40:53;;;;;;;2.40;0.60;;;;;;;2.18;100.00;98136.21;104715;1261;73798;-59
2023/12/23 10:43:20;;;;;;;1.90;0.70;;;;;;;2.20;100.00;98138.45;105274;1258;67092;-58
2023/12/23 10:45:50;;;;;;;5.90;0.70;;;;;;;2.19;100.00;98131.73;104544;1263;72728;-58
2023/12/23 10:48:18;;;;;;;2.40;0.70;;;;;;;2.17;100.00;98134.29;104747;1256;60557;-59
2023/12/23 10:50:47;;;;;;;1.30;0.60;;;;;;;2.16;100.00;98139.48;105047;1255;60637;-59
2023/12/23 10:53:16;;;;;;;4.70;0.70;;;;;;;2.12;100.00;98138.38;104612;1261;73899;-59
2023/12/23 10:55:44;;;;;;;1.60;0.70;;;;;;;2.09;100.00;98138.52;104992;1260;70490;-58
2023/12/23 10:58:12;;;;;;;3.00;0.70;;;;;;;2.06;100.00;98133.51;104568;1258;72537;-57
2023/12/23 11:00:41;;;;;;;2.10;0.60;;;;;;;2.05;100.00;98136.88;104403;1260;60496;-58
2023/12/23 11:03:08;;;;;;;3.60;0.70;;;;;;;2.06;100.00;98135.80;105254;1255;60926;-57
2023/12/23 11:05:37;;;;;;;1.90;0.60;;;;;;;2.06;100.00;98135.44;106527;1258;73021;-58
2023/12/23 11:08:06;;;;;;;2.80;0.70;;;;;;;2.08;100.00;98138.22;108823;1254;65702;-58
2023/12/23 11:10:43;;;;;;;1.40;0.70;;;;;;;2.09;100.00;98147.02;108691;1255;71667;-58
2023/12/23 11:13:10;;;;;;;3.40;0.70;;;;;;;2.11;100.00;98141.83;108782;1256;60410;-58
2023/12/23 11:15:38;;;;;;;2.90;0.60;;;;;;;2.10;100.00;98143.60;105841;1256;61125;-59
2023/12/23 11:18:06;;;;;;;1.90;0.60;;;;;;;2.09;100.00;98144.88;108584;1255;73866;-57
2023/12/23 11:20:35;;;;;;;2.70;0.50;;;;;;;2.07;100.00;98149.92;108846;1255;67201;-59
2023/12/23 11:23:24;;;;;;;3.00;1.00;;;;;;;2.02;100.00;98142.52;108776;1255;71469;-60
2023/12/23 11:25:52;;;;;;;1.40;0.60;;;;;;;1.99;100.00;98150.77;108786;1254;58485;-59
2023/12/23 11:28:20;;;;;;;2.10;0.70;;;;;;;1.99;100.00;98142.46;108266;1259;59184;-56
2023/12/23 11:30:57;;;;;;;4.00;0.60;;;;;;;2.01;100.00;98140.63;104742;1256;74276;-59